sensor_id;sensor_type;location;lat;lon;timestamp;temperature;humidity
41838;DHT22;27511;52.042;5.178;2022-11-02T00:01:39;15.70;99.90
41838;DHT22;27511;52.042;5.178;2022-11-02T00:04:05;15.80;99.90
41838;DHT22;27511;52.042;5.178;2022-11-02T00:06:31;15.60;99.90
41838;DHT22;27511;52.042;5.178;2022-11-02T00:08:56;15.70;99.90
41838;DHT22;27511;52.042;5.178;2022-11-02T00:11:22;15.70;99.90
41838;DHT22;27511;52.042;5.178;2022-11-02T00:13:48;15.70;99.90
41838;DHT22;27511;52.042;5.178;2022-11-02T00:16:14;15.80;99.90
41838;DHT22;27511;52.042;5.178;2022-11-02T00:18:42;15.80;99.90
41838;DHT22;27511;52.042;5.178;2022-11-02T00:21:09;15.70;99.90
41838;DHT22;27511;52.042;5.178;2022-11-02T00:23:35;15.70;99.90
41838;DHT22;27511;52.042;5.178;2022-11-02T00:26:01;15.70;99.90
41838;DHT22;27511;52.042;5.178;2022-11-02T00:28:27;15.60;99.90
41838;DHT22;27511;52.042;5.178;2022-11-02T00:30:53;15.60;99.90
41838;DHT22;27511;52.042;5.178;2022-11-02T00:33:19;15.50;99.90
41838;DHT22;27511;52.042;5.178;2022-11-02T00:35:44;15.40;99.90
41838;DHT22;27511;52.042;5.178;2022-11-02T00:38:10;15.30;99.90
41838;DHT22;27511;52.042;5.178;2022-11-02T00:40:36;15.20;99.90
41838;DHT22;27511;52.042;5.178;2022-11-02T00:43:02;15.30;99.90
41838;DHT22;27511;52.042;5.178;2022-11-02T00:45:27;15.40;99.90
41838;DHT22;27511;52.042;5.178;2022-11-02T00:47:53;15.40;99.90
41838;DHT22;27511;52.042;5.178;2022-11-02T00:50:18;15.50;99.90
41838;DHT22;27511;52.042;5.178;2022-11-02T00:52:44;15.50;99.90
41838;DHT22;27511;52.042;5.178;2022-11-02T00:55:10;15.60;99.90
41838;DHT22;27511;52.042;5.178;2022-11-02T00:57:37;15.60;99.90
41838;DHT22;27511;52.042;5.178;2022-11-02T01:00:04;15.60;99.90
41838;DHT22;27511;52.042;5.178;2022-11-02T01:02:32;15.40;99.90
41838;DHT22;27511;52.042;5.178;2022-11-02T01:04:58;15.20;99.90
41838;DHT22;27511;52.042;5.178;2022-11-02T01:07:23;15.00;99.90
41838;DHT22;27511;52.042;5.178;2022-11-02T01:09:49;14.80;99.90
41838;DHT22;27511;52.042;5.178;2022-11-02T01:12:14;14.70;99.90
41838;DHT22;27511;52.042;5.178;2022-11-02T01:14:40;14.50;99.90
41838;DHT22;27511;52.042;5.178;2022-11-02T01:17:05;14.30;99.90
41838;DHT22;27511;52.042;5.178;2022-11-02T01:19:31;14.40;99.90
41838;DHT22;27511;52.042;5.178;2022-11-02T01:21:56;14.30;99.90
41838;DHT22;27511;52.042;5.178;2022-11-02T01:24:22;14.30;99.90
41838;DHT22;27511;52.042;5.178;2022-11-02T01:26:51;14.30;99.90
41838;DHT22;27511;52.042;5.178;2022-11-02T01:29:17;14.30;99.90
41838;DHT22;27511;52.042;5.178;2022-11-02T01:31:42;14.30;99.90
41838;DHT22;27511;52.042;5.178;2022-11-02T01:34:10;14.30;99.90
41838;DHT22;27511;52.042;5.178;2022-11-02T01:36:35;14.30;99.90
41838;DHT22;27511;52.042;5.178;2022-11-02T01:39:01;14.30;99.90
41838;DHT22;27511;52.042;5.178;2022-11-02T01:41:26;14.30;99.90
41838;DHT22;27511;52.042;5.178;2022-11-02T01:43:55;14.30;99.90
41838;DHT22;27511;52.042;5.178;2022-11-02T01:46:30;14.30;99.90
41838;DHT22;27511;52.042;5.178;2022-11-02T01:49:07;14.20;99.90
41838;DHT22;27511;52.042;5.178;2022-11-02T01:51:41;14.20;99.90
41838;DHT22;27511;52.042;5.178;2022-11-02T01:54:22;14.10;99.90
41838;DHT22;27511;52.042;5.178;2022-11-02T01:56:55;14.10;99.90
41838;DHT22;27511;52.042;5.178;2022-11-02T01:59:26;14.00;99.90
41838;DHT22;27511;52.042;5.178;2022-11-02T02:01:52;13.90;99.90
41838;DHT22;27511;52.042;5.178;2022-11-02T02:04:19;14.00;99.90
41838;DHT22;27511;52.042;5.178;2022-11-02T02:06:46;14.00;99.90
41838;DHT22;27511;52.042;5.178;2022-11-02T02:09:13;14.10;99.90
41838;DHT22;27511;52.042;5.178;2022-11-02T02:11:40;14.00;99.90
41838;DHT22;27511;52.042;5.178;2022-11-02T02:19:40;14.10;99.90
41838;DHT22;27511;52.042;5.178;2022-11-02T02:22:17;14.00;99.90
41838;DHT22;27511;52.042;5.178;2022-11-02T02:25:24;14.00;99.90
41838;DHT22;27511;52.042;5.178;2022-11-02T02:30:44;14.00;99.90
41838;DHT22;27511;52.042;5.178;2022-11-02T02:33:16;14.00;99.90
41838;DHT22;27511;52.042;5.178;2022-11-02T02:35:53;14.10;99.90
41838;DHT22;27511;52.042;5.178;2022-11-02T02:38:31;14.10;99.90
41838;DHT22;27511;52.042;5.178;2022-11-02T02:41:09;14.20;99.90
41838;DHT22;27511;52.042;5.178;2022-11-02T02:43:41;14.20;99.90
41838;DHT22;27511;52.042;5.178;2022-11-02T02:46:18;14.20;99.90
41838;DHT22;27511;52.042;5.178;2022-11-02T02:48:45;14.20;99.90
41838;DHT22;27511;52.042;5.178;2022-11-02T02:51:21;14.30;99.90
41838;DHT22;27511;52.042;5.178;2022-11-02T02:53:56;14.30;99.90
41838;DHT22;27511;52.042;5.178;2022-11-02T02:56:24;14.30;99.90
41838;DHT22;27511;52.042;5.178;2022-11-02T02:59:04;14.20;99.90
41838;DHT22;27511;52.042;5.178;2022-11-02T03:01:31;14.30;99.90
41838;DHT22;27511;52.042;5.178;2022-11-02T03:03:57;14.20;99.90
41838;DHT22;27511;52.042;5.178;2022-11-02T03:06:29;14.30;99.90
41838;DHT22;27511;52.042;5.178;2022-11-02T03:11:28;14.20;99.90
41838;DHT22;27511;52.042;5.178;2022-11-02T03:14:06;14.30;99.90
41838;DHT22;27511;52.042;5.178;2022-11-02T03:17:00;14.30;99.90
41838;DHT22;27511;52.042;5.178;2022-11-02T03:22:02;14.50;99.90
41838;DHT22;27511;52.042;5.178;2022-11-02T03:25:01;14.50;99.90
41838;DHT22;27511;52.042;5.178;2022-11-02T03:28:00;14.40;99.90
41838;DHT22;27511;52.042;5.178;2022-11-02T03:30:33;14.30;99.90
41838;DHT22;27511;52.042;5.178;2022-11-02T03:38:09;14.30;99.90
41838;DHT22;27511;52.042;5.178;2022-11-02T03:40:45;14.30;99.90
41838;DHT22;27511;52.042;5.178;2022-11-02T03:43:13;14.30;99.90
41838;DHT22;27511;52.042;5.178;2022-11-02T03:45:43;14.20;99.90
41838;DHT22;27511;52.042;5.178;2022-11-02T03:48:11;14.30;99.90
41838;DHT22;27511;52.042;5.178;2022-11-02T03:50:41;14.20;99.90
41838;DHT22;27511;52.042;5.178;2022-11-02T03:55:47;14.50;99.90
41838;DHT22;27511;52.042;5.178;2022-11-02T03:58:12;14.60;99.90
41838;DHT22;27511;52.042;5.178;2022-11-02T04:00:46;14.60;99.90
41838;DHT22;27511;52.042;5.178;2022-11-02T04:03:15;14.60;99.90
41838;DHT22;27511;52.042;5.178;2022-11-02T04:05:41;14.60;99.90
41838;DHT22;27511;52.042;5.178;2022-11-02T04:08:08;14.40;99.90
41838;DHT22;27511;52.042;5.178;2022-11-02T04:10:45;14.60;99.90
41838;DHT22;27511;52.042;5.178;2022-11-02T04:13:29;14.50;99.90
41838;DHT22;27511;52.042;5.178;2022-11-02T04:16:14;14.50;99.90
41838;DHT22;27511;52.042;5.178;2022-11-02T04:18:39;14.60;99.90
41838;DHT22;27511;52.042;5.178;2022-11-02T04:21:23;14.60;99.90
41838;DHT22;27511;52.042;5.178;2022-11-02T04:23:49;14.70;99.90
41838;DHT22;27511;52.042;5.178;2022-11-02T04:26:33;14.60;99.90
41838;DHT22;27511;52.042;5.178;2022-11-02T04:28:58;14.70;99.90
41838;DHT22;27511;52.042;5.178;2022-11-02T04:31:24;14.60;99.90
41838;DHT22;27511;52.042;5.178;2022-11-02T04:33:49;14.60;99.90
41838;DHT22;27511;52.042;5.178;2022-11-02T04:36:15;14.70;99.90
41838;DHT22;27511;52.042;5.178;2022-11-02T04:38:41;14.70;99.90
41838;DHT22;27511;52.042;5.178;2022-11-02T04:41:17;14.40;99.90
41838;DHT22;27511;52.042;5.178;2022-11-02T04:44:02;14.60;99.90
41838;DHT22;27511;52.042;5.178;2022-11-02T04:46:30;14.70;99.90
41838;DHT22;27511;52.042;5.178;2022-11-02T04:48:57;14.60;99.90
41838;DHT22;27511;52.042;5.178;2022-11-02T04:51:24;14.70;99.90
41838;DHT22;27511;52.042;5.178;2022-11-02T04:53:52;14.50;99.90
41838;DHT22;27511;52.042;5.178;2022-11-02T04:56:18;14.50;99.90
41838;DHT22;27511;52.042;5.178;2022-11-02T04:58:48;14.60;99.90
41838;DHT22;27511;52.042;5.178;2022-11-02T05:01:14;14.70;99.90
41838;DHT22;27511;52.042;5.178;2022-11-02T05:03:41;14.70;99.90
41838;DHT22;27511;52.042;5.178;2022-11-02T05:06:08;14.80;99.90
41838;DHT22;27511;52.042;5.178;2022-11-02T05:08:35;14.90;99.90
41838;DHT22;27511;52.042;5.178;2022-11-02T05:11:01;14.90;99.90
41838;DHT22;27511;52.042;5.178;2022-11-02T05:13:27;14.80;99.90
41838;DHT22;27511;52.042;5.178;2022-11-02T05:15:56;14.60;99.90
41838;DHT22;27511;52.042;5.178;2022-11-02T05:18:23;14.50;99.90
41838;DHT22;27511;52.042;5.178;2022-11-02T05:20:57;14.50;99.90
41838;DHT22;27511;52.042;5.178;2022-11-02T05:23:23;14.50;99.90
41838;DHT22;27511;52.042;5.178;2022-11-02T05:28:22;14.40;99.90
41838;DHT22;27511;52.042;5.178;2022-11-02T05:30:48;14.40;99.90
41838;DHT22;27511;52.042;5.178;2022-11-02T05:33:14;14.50;99.90
41838;DHT22;27511;52.042;5.178;2022-11-02T05:35:40;14.60;99.90
41838;DHT22;27511;52.042;5.178;2022-11-02T05:38:05;14.60;99.90
41838;DHT22;27511;52.042;5.178;2022-11-02T05:40:31;14.80;99.90
41838;DHT22;27511;52.042;5.178;2022-11-02T05:43:00;14.60;99.90
41838;DHT22;27511;52.042;5.178;2022-11-02T05:45:27;14.40;99.90
41838;DHT22;27511;52.042;5.178;2022-11-02T05:47:52;14.40;99.90
41838;DHT22;27511;52.042;5.178;2022-11-02T05:50:18;14.40;99.90
41838;DHT22;27511;52.042;5.178;2022-11-02T05:52:44;14.40;99.90
41838;DHT22;27511;52.042;5.178;2022-11-02T05:55:09;14.40;99.90
41838;DHT22;27511;52.042;5.178;2022-11-02T05:57:35;14.40;99.90
41838;DHT22;27511;52.042;5.178;2022-11-02T06:00:05;14.40;99.90
41838;DHT22;27511;52.042;5.178;2022-11-02T06:02:32;14.40;99.90
41838;DHT22;27511;52.042;5.178;2022-11-02T06:04:58;14.40;99.90
41838;DHT22;27511;52.042;5.178;2022-11-02T06:07:23;14.50;99.90
41838;DHT22;27511;52.042;5.178;2022-11-02T06:09:49;14.60;99.90
41838;DHT22;27511;52.042;5.178;2022-11-02T06:12:14;14.60;99.90
41838;DHT22;27511;52.042;5.178;2022-11-02T06:14:40;14.60;99.90
41838;DHT22;27511;52.042;5.178;2022-11-02T06:17:05;14.60;99.90
41838;DHT22;27511;52.042;5.178;2022-11-02T06:19:31;14.70;99.90
41838;DHT22;27511;52.042;5.178;2022-11-02T06:21:57;14.60;99.90
41838;DHT22;27511;52.042;5.178;2022-11-02T06:24:22;14.50;99.90
41838;DHT22;27511;52.042;5.178;2022-11-02T06:26:48;14.30;99.90
41838;DHT22;27511;52.042;5.178;2022-11-02T06:29:13;14.30;99.90
41838;DHT22;27511;52.042;5.178;2022-11-02T06:31:39;14.40;99.90
41838;DHT22;27511;52.042;5.178;2022-11-02T06:34:05;14.50;99.90
41838;DHT22;27511;52.042;5.178;2022-11-02T06:36:30;14.50;99.90
41838;DHT22;27511;52.042;5.178;2022-11-02T06:38:56;14.50;99.90
41838;DHT22;27511;52.042;5.178;2022-11-02T06:41:21;14.50;99.90
41838;DHT22;27511;52.042;5.178;2022-11-02T06:43:47;14.50;99.90
41838;DHT22;27511;52.042;5.178;2022-11-02T06:46:12;14.50;99.90
41838;DHT22;27511;52.042;5.178;2022-11-02T06:48:38;14.60;99.90
41838;DHT22;27511;52.042;5.178;2022-11-02T06:51:04;14.50;99.90
41838;DHT22;27511;52.042;5.178;2022-11-02T06:53:31;14.50;99.90
41838;DHT22;27511;52.042;5.178;2022-11-02T06:55:57;14.40;99.90
41838;DHT22;27511;52.042;5.178;2022-11-02T06:58:24;14.60;99.90
41838;DHT22;27511;52.042;5.178;2022-11-02T07:00:55;14.60;99.90
41838;DHT22;27511;52.042;5.178;2022-11-02T07:03:20;14.50;99.90
41838;DHT22;27511;52.042;5.178;2022-11-02T07:05:53;14.60;99.90
41838;DHT22;27511;52.042;5.178;2022-11-02T07:08:19;14.60;99.90
41838;DHT22;27511;52.042;5.178;2022-11-02T07:10:45;14.60;99.90
41838;DHT22;27511;52.042;5.178;2022-11-02T07:13:11;14.50;99.90
41838;DHT22;27511;52.042;5.178;2022-11-02T07:15:36;14.60;99.90
41838;DHT22;27511;52.042;5.178;2022-11-02T07:18:02;14.50;99.90
41838;DHT22;27511;52.042;5.178;2022-11-02T07:20:28;14.40;99.90
41838;DHT22;27511;52.042;5.178;2022-11-02T07:22:56;14.60;99.90
41838;DHT22;27511;52.042;5.178;2022-11-02T07:25:23;14.60;99.90
41838;DHT22;27511;52.042;5.178;2022-11-02T07:27:49;14.60;99.90
41838;DHT22;27511;52.042;5.178;2022-11-02T07:30:14;14.60;99.90
41838;DHT22;27511;52.042;5.178;2022-11-02T07:32:41;14.50;99.90
41838;DHT22;27511;52.042;5.178;2022-11-02T07:35:09;14.50;99.90
41838;DHT22;27511;52.042;5.178;2022-11-02T07:37:35;14.50;99.90
41838;DHT22;27511;52.042;5.178;2022-11-02T07:40:01;14.40;99.90
41838;DHT22;27511;52.042;5.178;2022-11-02T07:42:26;14.40;99.90
41838;DHT22;27511;52.042;5.178;2022-11-02T07:44:52;14.50;99.90
41838;DHT22;27511;52.042;5.178;2022-11-02T07:47:17;14.50;99.90
41838;DHT22;27511;52.042;5.178;2022-11-02T07:49:43;14.50;99.90
41838;DHT22;27511;52.042;5.178;2022-11-02T07:52:09;14.50;99.90
41838;DHT22;27511;52.042;5.178;2022-11-02T07:54:34;14.50;99.90
41838;DHT22;27511;52.042;5.178;2022-11-02T07:57:00;14.50;99.90
41838;DHT22;27511;52.042;5.178;2022-11-02T07:59:26;14.60;99.90
41838;DHT22;27511;52.042;5.178;2022-11-02T08:01:51;14.60;99.90
41838;DHT22;27511;52.042;5.178;2022-11-02T08:04:17;14.60;99.90
41838;DHT22;27511;52.042;5.178;2022-11-02T08:06:42;14.60;99.90
41838;DHT22;27511;52.042;5.178;2022-11-02T08:09:08;14.60;99.90
41838;DHT22;27511;52.042;5.178;2022-11-02T08:11:33;14.60;99.90
41838;DHT22;27511;52.042;5.178;2022-11-02T08:13:59;14.60;99.90
41838;DHT22;27511;52.042;5.178;2022-11-02T08:16:27;14.70;99.90
41838;DHT22;27511;52.042;5.178;2022-11-02T08:18:52;14.70;99.90
41838;DHT22;27511;52.042;5.178;2022-11-02T08:21:18;14.70;99.90
41838;DHT22;27511;52.042;5.178;2022-11-02T08:23:44;14.70;99.90
41838;DHT22;27511;52.042;5.178;2022-11-02T08:26:09;14.90;99.90
41838;DHT22;27511;52.042;5.178;2022-11-02T08:28:35;14.80;99.90
41838;DHT22;27511;52.042;5.178;2022-11-02T08:31:13;14.80;99.90
41838;DHT22;27511;52.042;5.178;2022-11-02T08:33:40;14.90;99.90
41838;DHT22;27511;52.042;5.178;2022-11-02T08:36:06;14.90;99.90
41838;DHT22;27511;52.042;5.178;2022-11-02T08:38:32;14.90;99.90
41838;DHT22;27511;52.042;5.178;2022-11-02T08:40:57;15.00;99.90
41838;DHT22;27511;52.042;5.178;2022-11-02T08:43:23;15.00;99.90
41838;DHT22;27511;52.042;5.178;2022-11-02T08:45:48;15.00;99.90
41838;DHT22;27511;52.042;5.178;2022-11-02T08:48:14;14.90;99.90
41838;DHT22;27511;52.042;5.178;2022-11-02T08:50:40;14.90;99.90
41838;DHT22;27511;52.042;5.178;2022-11-02T08:53:06;14.90;99.90
41838;DHT22;27511;52.042;5.178;2022-11-02T08:55:32;14.80;99.90
41838;DHT22;27511;52.042;5.178;2022-11-02T08:57:58;14.90;99.90
41838;DHT22;27511;52.042;5.178;2022-11-02T09:00:27;14.80;99.90
41838;DHT22;27511;52.042;5.178;2022-11-02T09:03:06;14.90;99.90
41838;DHT22;27511;52.042;5.178;2022-11-02T09:05:37;14.80;99.90
41838;DHT22;27511;52.042;5.178;2022-11-02T09:08:05;14.90;99.90
41838;DHT22;27511;52.042;5.178;2022-11-02T09:10:33;15.00;99.90
41838;DHT22;27511;52.042;5.178;2022-11-02T09:13:01;14.90;99.90
41838;DHT22;27511;52.042;5.178;2022-11-02T09:15:27;15.00;99.90
41838;DHT22;27511;52.042;5.178;2022-11-02T09:17:53;15.00;99.90
41838;DHT22;27511;52.042;5.178;2022-11-02T09:20:19;15.00;99.90
41838;DHT22;27511;52.042;5.178;2022-11-02T09:22:45;15.10;99.90
41838;DHT22;27511;52.042;5.178;2022-11-02T09:25:12;15.10;99.90
41838;DHT22;27511;52.042;5.178;2022-11-02T09:27:37;15.10;99.90
41838;DHT22;27511;52.042;5.178;2022-11-02T09:30:04;15.20;99.90
41838;DHT22;27511;52.042;5.178;2022-11-02T09:32:30;15.20;99.90
41838;DHT22;27511;52.042;5.178;2022-11-02T09:35:04;15.20;99.90
41838;DHT22;27511;52.042;5.178;2022-11-02T09:37:30;15.30;99.90
41838;DHT22;27511;52.042;5.178;2022-11-02T09:39:56;15.20;99.90
41838;DHT22;27511;52.042;5.178;2022-11-02T09:42:30;15.20;99.90
41838;DHT22;27511;52.042;5.178;2022-11-02T09:44:58;15.20;99.90
41838;DHT22;27511;52.042;5.178;2022-11-02T09:47:26;15.30;99.90
41838;DHT22;27511;52.042;5.178;2022-11-02T09:49:54;15.20;99.90
41838;DHT22;27511;52.042;5.178;2022-11-02T09:52:28;15.20;99.90
41838;DHT22;27511;52.042;5.178;2022-11-02T09:54:58;15.40;99.90
41838;DHT22;27511;52.042;5.178;2022-11-02T09:57:31;15.30;99.90
41838;DHT22;27511;52.042;5.178;2022-11-02T09:59:57;15.40;99.90
41838;DHT22;27511;52.042;5.178;2022-11-02T10:05:42;15.70;99.90
41838;DHT22;27511;52.042;5.178;2022-11-02T10:11:45;15.50;99.90
41838;DHT22;27511;52.042;5.178;2022-11-02T10:14:17;15.40;99.90
41838;DHT22;27511;52.042;5.178;2022-11-02T10:19:48;15.50;99.90
41838;DHT22;27511;52.042;5.178;2022-11-02T10:22:16;15.50;99.90
41838;DHT22;27511;52.042;5.178;2022-11-02T10:24:44;15.60;99.90
41838;DHT22;27511;52.042;5.178;2022-11-02T10:27:24;15.60;99.90
41838;DHT22;27511;52.042;5.178;2022-11-02T10:32:37;15.80;99.90
41838;DHT22;27511;52.042;5.178;2022-11-02T10:35:09;15.80;99.90
41838;DHT22;27511;52.042;5.178;2022-11-02T10:40:58;15.90;99.90
41838;DHT22;27511;52.042;5.178;2022-11-02T10:43:55;15.70;99.90
41838;DHT22;27511;52.042;5.178;2022-11-02T10:46:53;15.50;99.90
41838;DHT22;27511;52.042;5.178;2022-11-02T10:52:03;15.90;99.90
41838;DHT22;27511;52.042;5.178;2022-11-02T10:54:29;15.80;99.90
41838;DHT22;27511;52.042;5.178;2022-11-02T10:56:57;15.90;99.90
41838;DHT22;27511;52.042;5.178;2022-11-02T10:59:23;16.00;99.90
41838;DHT22;27511;52.042;5.178;2022-11-02T11:04:24;16.10;99.90
41838;DHT22;27511;52.042;5.178;2022-11-02T11:06:50;16.20;99.90
41838;DHT22;27511;52.042;5.178;2022-11-02T11:09:37;16.20;99.90
41838;DHT22;27511;52.042;5.178;2022-11-02T11:12:05;16.10;99.90
41838;DHT22;27511;52.042;5.178;2022-11-02T11:14:47;16.30;99.90
41838;DHT22;27511;52.042;5.178;2022-11-02T11:17:19;16.30;99.90
41838;DHT22;27511;52.042;5.178;2022-11-02T11:19:53;16.20;99.90
41838;DHT22;27511;52.042;5.178;2022-11-02T11:22:32;16.30;99.90
41838;DHT22;27511;52.042;5.178;2022-11-02T11:25:25;16.40;99.90
41838;DHT22;27511;52.042;5.178;2022-11-02T11:27:56;16.50;99.90
41838;DHT22;27511;52.042;5.178;2022-11-02T11:30:34;16.50;99.90
41838;DHT22;27511;52.042;5.178;2022-11-02T11:33:03;16.50;99.90
41838;DHT22;27511;52.042;5.178;2022-11-02T11:35:37;16.50;99.90
41838;DHT22;27511;52.042;5.178;2022-11-02T11:38:12;16.60;99.90
41838;DHT22;27511;52.042;5.178;2022-11-02T11:40:43;16.70;99.90
41838;DHT22;27511;52.042;5.178;2022-11-02T11:43:11;16.70;99.90
41838;DHT22;27511;52.042;5.178;2022-11-02T11:45:38;16.60;99.90
41838;DHT22;27511;52.042;5.178;2022-11-02T11:48:26;16.60;99.90
41838;DHT22;27511;52.042;5.178;2022-11-02T11:50:55;16.80;99.90
41838;DHT22;27511;52.042;5.178;2022-11-02T11:53:25;17.00;99.90
41838;DHT22;27511;52.042;5.178;2022-11-02T11:55:51;17.10;99.90
41838;DHT22;27511;52.042;5.178;2022-11-02T11:58:19;17.00;99.90
41838;DHT22;27511;52.042;5.178;2022-11-02T12:00:45;17.00;99.90
41838;DHT22;27511;52.042;5.178;2022-11-02T12:03:12;16.80;99.90
41838;DHT22;27511;52.042;5.178;2022-11-02T12:05:48;16.90;99.90
41838;DHT22;27511;52.042;5.178;2022-11-02T12:11:09;16.90;99.90
41838;DHT22;27511;52.042;5.178;2022-11-02T12:16:14;17.00;99.90
41838;DHT22;27511;52.042;5.178;2022-11-02T12:21:34;17.10;99.90
41838;DHT22;27511;52.042;5.178;2022-11-02T12:32:11;17.00;99.90
41838;DHT22;27511;52.042;5.178;2022-11-02T12:37:48;17.60;99.90
41838;DHT22;27511;52.042;5.178;2022-11-02T12:51:28;19.70;99.90
41838;DHT22;27511;52.042;5.178;2022-11-02T12:53:57;20.10;99.90
41838;DHT22;27511;52.042;5.178;2022-11-02T12:56:45;20.40;99.90
41838;DHT22;27511;52.042;5.178;2022-11-02T12:59:27;20.20;99.90
41838;DHT22;27511;52.042;5.178;2022-11-02T13:02:05;20.20;99.90
41838;DHT22;27511;52.042;5.178;2022-11-02T13:04:34;20.30;99.90
41838;DHT22;27511;52.042;5.178;2022-11-02T13:07:08;20.40;99.90
41838;DHT22;27511;52.042;5.178;2022-11-02T13:09:39;20.20;99.90
41838;DHT22;27511;52.042;5.178;2022-11-02T13:12:14;19.90;99.90
41838;DHT22;27511;52.042;5.178;2022-11-02T13:14:46;19.70;99.90
41838;DHT22;27511;52.042;5.178;2022-11-02T13:17:22;19.70;99.90
41838;DHT22;27511;52.042;5.178;2022-11-02T13:19:56;19.70;99.90
41838;DHT22;27511;52.042;5.178;2022-11-02T13:22:27;19.80;99.90
41838;DHT22;27511;52.042;5.178;2022-11-02T13:25:13;20.00;99.90
41838;DHT22;27511;52.042;5.178;2022-11-02T13:27:51;20.00;99.90
41838;DHT22;27511;52.042;5.178;2022-11-02T13:30:17;20.00;99.90
41838;DHT22;27511;52.042;5.178;2022-11-02T13:35:31;20.10;99.90
41838;DHT22;27511;52.042;5.178;2022-11-02T13:37:57;20.20;99.90
41838;DHT22;27511;52.042;5.178;2022-11-02T13:41:21;20.10;99.90
41838;DHT22;27511;52.042;5.178;2022-11-02T13:49:39;19.50;99.90
41838;DHT22;27511;52.042;5.178;2022-11-02T13:52:16;19.20;99.90
41838;DHT22;27511;52.042;5.178;2022-11-02T13:54:50;19.00;99.90
41838;DHT22;27511;52.042;5.178;2022-11-02T13:57:37;19.00;99.90
41838;DHT22;27511;52.042;5.178;2022-11-02T14:00:22;19.00;99.90
41838;DHT22;27511;52.042;5.178;2022-11-02T14:02:55;18.80;99.90
41838;DHT22;27511;52.042;5.178;2022-11-02T14:05:28;18.80;99.90
41838;DHT22;27511;52.042;5.178;2022-11-02T14:08:03;18.70;99.90
41838;DHT22;27511;52.042;5.178;2022-11-02T14:10:34;18.60;99.90
41838;DHT22;27511;52.042;5.178;2022-11-02T14:13:00;18.60;99.90
41838;DHT22;27511;52.042;5.178;2022-11-02T14:18:13;18.60;99.90
41838;DHT22;27511;52.042;5.178;2022-11-02T14:20:44;18.60;99.90
41838;DHT22;27511;52.042;5.178;2022-11-02T14:25:56;18.60;99.90
41838;DHT22;27511;52.042;5.178;2022-11-02T14:36:50;18.30;99.90
41838;DHT22;27511;52.042;5.178;2022-11-02T14:39:55;18.40;99.90
41838;DHT22;27511;52.042;5.178;2022-11-02T14:42:47;18.40;99.90
41838;DHT22;27511;52.042;5.178;2022-11-02T14:45:21;18.50;99.90
41838;DHT22;27511;52.042;5.178;2022-11-02T14:47:58;18.60;99.90
41838;DHT22;27511;52.042;5.178;2022-11-02T14:50:24;18.60;99.90
41838;DHT22;27511;52.042;5.178;2022-11-02T14:52:57;18.60;99.90
41838;DHT22;27511;52.042;5.178;2022-11-02T14:55:27;18.50;99.90
41838;DHT22;27511;52.042;5.178;2022-11-02T14:58:02;18.30;99.90
41838;DHT22;27511;52.042;5.178;2022-11-02T15:00:34;18.20;99.90
41838;DHT22;27511;52.042;5.178;2022-11-02T15:03:04;18.10;99.90
41838;DHT22;27511;52.042;5.178;2022-11-02T15:05:38;18.10;99.90
41838;DHT22;27511;52.042;5.178;2022-11-02T15:10:42;18.10;99.90
41838;DHT22;27511;52.042;5.178;2022-11-02T15:26:23;17.40;99.90
41838;DHT22;27511;52.042;5.178;2022-11-02T15:28:54;17.40;99.90
41838;DHT22;27511;52.042;5.178;2022-11-02T15:31:22;17.50;99.90
41838;DHT22;27511;52.042;5.178;2022-11-02T15:33:51;17.40;99.90
41838;DHT22;27511;52.042;5.178;2022-11-02T15:36:28;17.30;99.90
41838;DHT22;27511;52.042;5.178;2022-11-02T15:38:57;17.30;99.90
41838;DHT22;27511;52.042;5.178;2022-11-02T15:41:49;17.30;99.90
41838;DHT22;27511;52.042;5.178;2022-11-02T15:47:34;17.10;99.90
41838;DHT22;27511;52.042;5.178;2022-11-02T15:58:36;17.00;99.90
41838;DHT22;27511;52.042;5.178;2022-11-02T16:01:18;16.90;99.90
41838;DHT22;27511;52.042;5.178;2022-11-02T16:03:52;16.80;99.90
41838;DHT22;27511;52.042;5.178;2022-11-02T16:06:37;16.80;99.90
41838;DHT22;27511;52.042;5.178;2022-11-02T16:09:30;16.70;99.90
41838;DHT22;27511;52.042;5.178;2022-11-02T16:12:11;16.70;99.90
41838;DHT22;27511;52.042;5.178;2022-11-02T16:14:37;16.70;99.90
41838;DHT22;27511;52.042;5.178;2022-11-02T16:17:03;16.70;99.90
41838;DHT22;27511;52.042;5.178;2022-11-02T16:19:29;16.60;99.90
41838;DHT22;27511;52.042;5.178;2022-11-02T16:21:54;16.60;99.90
41838;DHT22;27511;52.042;5.178;2022-11-02T16:24:20;16.50;99.90
41838;DHT22;27511;52.042;5.178;2022-11-02T16:26:47;16.60;99.90
41838;DHT22;27511;52.042;5.178;2022-11-02T16:29:26;16.50;99.90
41838;DHT22;27511;52.042;5.178;2022-11-02T16:31:53;16.50;99.90
41838;DHT22;27511;52.042;5.178;2022-11-02T16:34:21;16.40;99.90
41838;DHT22;27511;52.042;5.178;2022-11-02T16:36:48;16.40;99.90
41838;DHT22;27511;52.042;5.178;2022-11-02T16:39:16;16.30;99.90
41838;DHT22;27511;52.042;5.178;2022-11-02T16:41:48;16.30;99.90
41838;DHT22;27511;52.042;5.178;2022-11-02T16:44:24;16.20;99.90
41838;DHT22;27511;52.042;5.178;2022-11-02T16:49:23;16.20;99.90
41838;DHT22;27511;52.042;5.178;2022-11-02T16:51:57;16.20;99.90
41838;DHT22;27511;52.042;5.178;2022-11-02T17:02:34;16.10;99.90
41838;DHT22;27511;52.042;5.178;2022-11-02T17:05:02;16.00;99.90
41838;DHT22;27511;52.042;5.178;2022-11-02T17:07:38;16.00;99.90
41838;DHT22;27511;52.042;5.178;2022-11-02T17:10:06;16.00;99.90
41838;DHT22;27511;52.042;5.178;2022-11-02T17:12:34;16.00;99.90
41838;DHT22;27511;52.042;5.178;2022-11-02T17:15:13;15.80;99.90
41838;DHT22;27511;52.042;5.178;2022-11-02T17:17:40;15.90;99.90
41838;DHT22;27511;52.042;5.178;2022-11-02T17:20:21;15.80;99.90
41838;DHT22;27511;52.042;5.178;2022-11-02T17:27:53;15.80;99.90
41838;DHT22;27511;52.042;5.178;2022-11-02T17:30:45;15.70;99.90
41838;DHT22;27511;52.042;5.178;2022-11-02T17:33:28;15.70;99.90
41838;DHT22;27511;52.042;5.178;2022-11-02T17:36:01;15.80;99.90
41838;DHT22;27511;52.042;5.178;2022-11-02T17:38:27;15.80;99.90
41838;DHT22;27511;52.042;5.178;2022-11-02T17:40:54;15.70;99.90
41838;DHT22;27511;52.042;5.178;2022-11-02T17:43:21;15.60;99.90
41838;DHT22;27511;52.042;5.178;2022-11-02T17:45:57;15.70;99.90
41838;DHT22;27511;52.042;5.178;2022-11-02T17:48:26;15.70;99.90
41838;DHT22;27511;52.042;5.178;2022-11-02T17:50:56;15.70;99.90
41838;DHT22;27511;52.042;5.178;2022-11-02T17:53:22;15.70;99.90
41838;DHT22;27511;52.042;5.178;2022-11-02T17:55:48;15.70;99.90
41838;DHT22;27511;52.042;5.178;2022-11-02T17:58:13;15.70;99.90
41838;DHT22;27511;52.042;5.178;2022-11-02T18:00:39;15.60;99.90
41838;DHT22;27511;52.042;5.178;2022-11-02T18:03:19;15.60;99.90
41838;DHT22;27511;52.042;5.178;2022-11-02T18:05:46;15.70;99.90
41838;DHT22;27511;52.042;5.178;2022-11-02T18:08:13;15.70;99.90
41838;DHT22;27511;52.042;5.178;2022-11-02T18:10:41;15.70;99.90